Portada
METAR-TAF:

METAR-TAF

Aeropuertos :

Aeropuerto Internacional de Kuwait

Ciudad de Kuwait, Kuwait

latitud: 29-13N, longitud: 047-59E, altitud: 55 m

Observación

El informe se hizo hace 40 minutos, a las 04:00 UTC
Viento 3 kt del sur-suroeste
Temperatura 3°C
Humedad 70%
Presión 1022 hPa
Visibilidad 10 km o más
sin nubes por debajo de 1500 m y sin presencia de cumulonimbus.

METAR: OKBK 230400Z 20003KT CAVOK 03/M02 Q1022 NOSIG

Hora: 07:40 (04:40 UTC)

Pronóstico

El informe se hizo hace 5 horas y 55 minutos, a las 22:45 UTC
Pronóstico válido del 23 a las 00 UTC al 24 a las 06 UTC
Viento 3 kt con dirección variable
Visibilidad: 7000 m

TAF: OKBK 222245Z 2300/2406 VRB03KT 7000 NSC

Observaciones y pronósticos meteorológicos de más de 4000 aeropuertos (mensajes METAR y TAF).

Los puntos amarillos y rojos representan las estaciones disponibles.

Ponga el ratón en el punto deseado para ver el nombre de la estación.

Haga clic para ver las observaciones y los pronósticos meteorológicos.

Para cambiar el mapa : haga clic en los botones verdes con una cruz de color negro para hacer un zoom, en el botón verde con un guión para alejar o en las flechas verdes para mapas adyacentes.


METAR-TAF: